sensor_id;sensor_type;location;lat;lon;timestamp;temperature;humidity
75738;DHT22;64356;45.638;13.764;2024-01-15T00:01:29;22.80;36.60
75738;DHT22;64356;45.638;13.764;2024-01-15T00:03:54;22.80;36.60
75738;DHT22;64356;45.638;13.764;2024-01-15T00:06:20;22.80;36.60
75738;DHT22;64356;45.638;13.764;2024-01-15T00:08:46;22.80;36.50
75738;DHT22;64356;45.638;13.764;2024-01-15T00:11:12;22.90;36.50
75738;DHT22;64356;45.638;13.764;2024-01-15T00:13:37;22.90;36.50
75738;DHT22;64356;45.638;13.764;2024-01-15T00:16:04;22.90;36.50
75738;DHT22;64356;45.638;13.764;2024-01-15T00:18:29;22.90;36.40
75738;DHT22;64356;45.638;13.764;2024-01-15T00:20:55;23.00;36.40
75738;DHT22;64356;45.638;13.764;2024-01-15T00:23:21;23.00;36.40
75738;DHT22;64356;45.638;13.764;2024-01-15T00:25:46;23.00;36.40
75738;DHT22;64356;45.638;13.764;2024-01-15T00:28:12;23.00;36.40
75738;DHT22;64356;45.638;13.764;2024-01-15T00:30:37;23.00;36.50
75738;DHT22;64356;45.638;13.764;2024-01-15T00:33:03;23.00;36.40
75738;DHT22;64356;45.638;13.764;2024-01-15T00:35:30;23.00;36.40
75738;DHT22;64356;45.638;13.764;2024-01-15T00:37:56;23.00;36.50
75738;DHT22;64356;45.638;13.764;2024-01-15T00:40:21;22.90;36.50
75738;DHT22;64356;45.638;13.764;2024-01-15T00:42:47;22.90;36.50
75738;DHT22;64356;45.638;13.764;2024-01-15T00:45:12;22.90;36.50
75738;DHT22;64356;45.638;13.764;2024-01-15T00:47:38;22.90;36.50
75738;DHT22;64356;45.638;13.764;2024-01-15T00:50:04;22.90;36.60
75738;DHT22;64356;45.638;13.764;2024-01-15T00:52:30;22.90;36.60
75738;DHT22;64356;45.638;13.764;2024-01-15T00:54:56;22.90;36.60
75738;DHT22;64356;45.638;13.764;2024-01-15T00:57:22;22.90;36.50
75738;DHT22;64356;45.638;13.764;2024-01-15T00:59:48;22.90;36.60
75738;DHT22;64356;45.638;13.764;2024-01-15T01:02:14;22.90;36.50
75738;DHT22;64356;45.638;13.764;2024-01-15T01:04:40;22.90;36.50
75738;DHT22;64356;45.638;13.764;2024-01-15T01:07:05;22.90;36.60
75738;DHT22;64356;45.638;13.764;2024-01-15T01:09:31;22.90;36.60
75738;DHT22;64356;45.638;13.764;2024-01-15T01:11:57;22.90;36.60
75738;DHT22;64356;45.638;13.764;2024-01-15T01:14:22;23.00;36.70
75738;DHT22;64356;45.638;13.764;2024-01-15T01:16:48;22.90;36.60
75738;DHT22;64356;45.638;13.764;2024-01-15T01:19:14;22.90;36.60
75738;DHT22;64356;45.638;13.764;2024-01-15T01:21:40;22.90;36.60
75738;DHT22;64356;45.638;13.764;2024-01-15T01:24:06;22.90;36.60
75738;DHT22;64356;45.638;13.764;2024-01-15T01:26:31;23.00;36.60
75738;DHT22;64356;45.638;13.764;2024-01-15T01:28:57;22.90;36.60
75738;DHT22;64356;45.638;13.764;2024-01-15T01:31:23;22.90;36.60
75738;DHT22;64356;45.638;13.764;2024-01-15T01:33:49;22.90;37.30
75738;DHT22;64356;45.638;13.764;2024-01-15T01:36:14;22.80;36.80
75738;DHT22;64356;45.638;13.764;2024-01-15T01:38:40;22.70;36.90
75738;DHT22;64356;45.638;13.764;2024-01-15T01:41:06;22.60;37.00
75738;DHT22;64356;45.638;13.764;2024-01-15T01:43:32;22.50;37.20
75738;DHT22;64356;45.638;13.764;2024-01-15T01:45:57;22.50;37.40
75738;DHT22;64356;45.638;13.764;2024-01-15T01:48:24;22.30;37.50
75738;DHT22;64356;45.638;13.764;2024-01-15T01:50:52;22.30;37.70
75738;DHT22;64356;45.638;13.764;2024-01-15T01:53:18;22.20;37.80
75738;DHT22;64356;45.638;13.764;2024-01-15T01:55:43;22.10;38.00
75738;DHT22;64356;45.638;13.764;2024-01-15T01:58:09;22.10;38.10
75738;DHT22;64356;45.638;13.764;2024-01-15T02:00:35;22.10;38.20
75738;DHT22;64356;45.638;13.764;2024-01-15T02:03:01;22.10;38.20
75738;DHT22;64356;45.638;13.764;2024-01-15T02:05:28;22.10;38.10
75738;DHT22;64356;45.638;13.764;2024-01-15T02:07:54;22.20;38.00
75738;DHT22;64356;45.638;13.764;2024-01-15T02:10:20;22.30;37.90
75738;DHT22;64356;45.638;13.764;2024-01-15T02:12:45;22.40;37.70
75738;DHT22;64356;45.638;13.764;2024-01-15T02:15:14;22.50;37.50
75738;DHT22;64356;45.638;13.764;2024-01-15T02:20:25;22.60;37.30
75738;DHT22;64356;45.638;13.764;2024-01-15T02:22:51;22.70;37.30
75738;DHT22;64356;45.638;13.764;2024-01-15T02:25:17;22.70;37.10
75738;DHT22;64356;45.638;13.764;2024-01-15T02:27:43;22.80;37.10
75738;DHT22;64356;45.638;13.764;2024-01-15T02:30:09;22.80;37.00
75738;DHT22;64356;45.638;13.764;2024-01-15T02:32:36;22.80;36.90
75738;DHT22;64356;45.638;13.764;2024-01-15T02:35:02;22.80;36.90
75738;DHT22;64356;45.638;13.764;2024-01-15T02:37:27;22.90;36.90
75738;DHT22;64356;45.638;13.764;2024-01-15T02:39:53;22.90;36.90
75738;DHT22;64356;45.638;13.764;2024-01-15T02:42:18;22.80;36.90
75738;DHT22;64356;45.638;13.764;2024-01-15T02:44:44;22.80;37.00
75738;DHT22;64356;45.638;13.764;2024-01-15T02:47:10;22.70;37.00
75738;DHT22;64356;45.638;13.764;2024-01-15T02:49:35;22.70;37.20
75738;DHT22;64356;45.638;13.764;2024-01-15T02:52:01;22.50;37.30
75738;DHT22;64356;45.638;13.764;2024-01-15T02:54:27;22.50;37.50
75738;DHT22;64356;45.638;13.764;2024-01-15T02:56:53;22.40;37.70
75738;DHT22;64356;45.638;13.764;2024-01-15T02:59:19;22.30;37.90
75738;DHT22;64356;45.638;13.764;2024-01-15T03:01:44;22.20;38.00
75738;DHT22;64356;45.638;13.764;2024-01-15T03:04:10;22.10;38.10
75738;DHT22;64356;45.638;13.764;2024-01-15T03:06:35;22.10;38.20
75738;DHT22;64356;45.638;13.764;2024-01-15T03:09:02;22.00;38.20
75738;DHT22;64356;45.638;13.764;2024-01-15T03:11:28;22.00;38.30
75738;DHT22;64356;45.638;13.764;2024-01-15T03:13:54;22.00;38.30
75738;DHT22;64356;45.638;13.764;2024-01-15T03:16:20;22.00;38.30
75738;DHT22;64356;45.638;13.764;2024-01-15T03:18:46;22.00;38.40
75738;DHT22;64356;45.638;13.764;2024-01-15T03:21:11;22.00;38.40
75738;DHT22;64356;45.638;13.764;2024-01-15T03:23:37;22.00;38.40
75738;DHT22;64356;45.638;13.764;2024-01-15T03:26:03;22.00;38.50
75738;DHT22;64356;45.638;13.764;2024-01-15T03:28:29;22.00;38.50
75738;DHT22;64356;45.638;13.764;2024-01-15T03:30:55;21.90;38.40
75738;DHT22;64356;45.638;13.764;2024-01-15T03:33:21;22.00;38.40
75738;DHT22;64356;45.638;13.764;2024-01-15T03:35:47;22.10;38.40
75738;DHT22;64356;45.638;13.764;2024-01-15T03:38:12;22.10;38.30
75738;DHT22;64356;45.638;13.764;2024-01-15T03:40:38;22.20;38.20
75738;DHT22;64356;45.638;13.764;2024-01-15T03:43:04;22.20;38.00
75738;DHT22;64356;45.638;13.764;2024-01-15T03:45:29;22.30;38.00
75738;DHT22;64356;45.638;13.764;2024-01-15T03:47:55;22.40;37.80
75738;DHT22;64356;45.638;13.764;2024-01-15T03:50:20;22.50;37.70
75738;DHT22;64356;45.638;13.764;2024-01-15T03:52:46;22.50;37.60
75738;DHT22;64356;45.638;13.764;2024-01-15T03:55:12;22.60;37.50
75738;DHT22;64356;45.638;13.764;2024-01-15T03:57:37;22.60;37.50
75738;DHT22;64356;45.638;13.764;2024-01-15T04:00:03;22.60;37.40
75738;DHT22;64356;45.638;13.764;2024-01-15T04:02:29;22.70;37.30
75738;DHT22;64356;45.638;13.764;2024-01-15T04:04:56;22.70;37.20
75738;DHT22;64356;45.638;13.764;2024-01-15T04:07:21;22.70;37.20
75738;DHT22;64356;45.638;13.764;2024-01-15T04:09:47;22.80;37.20
75738;DHT22;64356;45.638;13.764;2024-01-15T04:12:12;22.80;37.30
75738;DHT22;64356;45.638;13.764;2024-01-15T04:14:38;22.70;37.30
75738;DHT22;64356;45.638;13.764;2024-01-15T04:17:04;22.60;37.40
75738;DHT22;64356;45.638;13.764;2024-01-15T04:19:29;22.50;37.50
75738;DHT22;64356;45.638;13.764;2024-01-15T04:21:55;22.50;37.70
75738;DHT22;64356;45.638;13.764;2024-01-15T04:24:21;22.40;37.80
75738;DHT22;64356;45.638;13.764;2024-01-15T04:26:47;22.30;37.90
75738;DHT22;64356;45.638;13.764;2024-01-15T04:29:12;22.20;38.00
75738;DHT22;64356;45.638;13.764;2024-01-15T04:31:38;22.20;38.10
75738;DHT22;64356;45.638;13.764;2024-01-15T04:34:03;22.10;38.20
75738;DHT22;64356;45.638;13.764;2024-01-15T04:36:29;22.10;38.30
75738;DHT22;64356;45.638;13.764;2024-01-15T04:38:55;22.10;38.30
75738;DHT22;64356;45.638;13.764;2024-01-15T04:41:20;22.10;38.40
75738;DHT22;64356;45.638;13.764;2024-01-15T04:43:46;22.00;38.40
75738;DHT22;64356;45.638;13.764;2024-01-15T04:46:13;22.00;38.40
75738;DHT22;64356;45.638;13.764;2024-01-15T04:48:39;22.00;38.50
75738;DHT22;64356;45.638;13.764;2024-01-15T04:51:05;22.00;38.40
75738;DHT22;64356;45.638;13.764;2024-01-15T04:53:31;22.10;38.50
75738;DHT22;64356;45.638;13.764;2024-01-15T04:55:57;22.00;38.40
75738;DHT22;64356;45.638;13.764;2024-01-15T04:58:22;22.00;38.40
75738;DHT22;64356;45.638;13.764;2024-01-15T05:00:51;22.00;38.50
75738;DHT22;64356;45.638;13.764;2024-01-15T05:03:16;22.00;38.50
75738;DHT22;64356;45.638;13.764;2024-01-15T05:05:42;22.00;38.60
75738;DHT22;64356;45.638;13.764;2024-01-15T05:08:08;22.00;38.60
75738;DHT22;64356;45.638;13.764;2024-01-15T05:10:33;22.00;38.60
75738;DHT22;64356;45.638;13.764;2024-01-15T05:12:59;22.00;38.60
75738;DHT22;64356;45.638;13.764;2024-01-15T05:15:24;22.00;38.60
75738;DHT22;64356;45.638;13.764;2024-01-15T05:17:51;22.00;38.50
75738;DHT22;64356;45.638;13.764;2024-01-15T05:20:17;22.00;39.10
75738;DHT22;64356;45.638;13.764;2024-01-15T05:22:42;22.00;38.50
75738;DHT22;64356;45.638;13.764;2024-01-15T05:25:08;22.00;38.90
75738;DHT22;64356;45.638;13.764;2024-01-15T05:27:33;22.00;38.60
75738;DHT22;64356;45.638;13.764;2024-01-15T05:29:59;22.00;38.60
75738;DHT22;64356;45.638;13.764;2024-01-15T05:32:25;21.90;38.60
75738;DHT22;64356;45.638;13.764;2024-01-15T05:34:50;22.00;38.60
75738;DHT22;64356;45.638;13.764;2024-01-15T05:37:16;22.00;38.70
75738;DHT22;64356;45.638;13.764;2024-01-15T05:39:42;22.00;38.60
75738;DHT22;64356;45.638;13.764;2024-01-15T05:42:07;22.00;38.70
75738;DHT22;64356;45.638;13.764;2024-01-15T05:44:33;21.90;38.60
75738;DHT22;64356;45.638;13.764;2024-01-15T05:46:58;22.00;38.70
75738;DHT22;64356;45.638;13.764;2024-01-15T05:49:24;21.90;38.60
75738;DHT22;64356;45.638;13.764;2024-01-15T05:51:50;21.90;38.70
75738;DHT22;64356;45.638;13.764;2024-01-15T05:54:18;21.90;38.70
75738;DHT22;64356;45.638;13.764;2024-01-15T05:56:43;21.90;38.60
75738;DHT22;64356;45.638;13.764;2024-01-15T05:59:09;21.90;38.70
75738;DHT22;64356;45.638;13.764;2024-01-15T06:01:35;22.00;39.00
75738;DHT22;64356;45.638;13.764;2024-01-15T06:04:00;22.00;38.70
75738;DHT22;64356;45.638;13.764;2024-01-15T06:06:26;22.00;38.70
75738;DHT22;64356;45.638;13.764;2024-01-15T06:08:52;22.00;38.70
75738;DHT22;64356;45.638;13.764;2024-01-15T06:11:17;22.00;38.70
75738;DHT22;64356;45.638;13.764;2024-01-15T06:13:43;22.00;38.70
75738;DHT22;64356;45.638;13.764;2024-01-15T06:16:13;22.00;38.70
75738;DHT22;64356;45.638;13.764;2024-01-15T06:18:38;22.00;38.70
75738;DHT22;64356;45.638;13.764;2024-01-15T06:21:04;21.90;38.70
75738;DHT22;64356;45.638;13.764;2024-01-15T06:23:30;22.00;38.70
75738;DHT22;64356;45.638;13.764;2024-01-15T06:25:55;22.00;38.80
75738;DHT22;64356;45.638;13.764;2024-01-15T06:28:21;22.00;39.00
75738;DHT22;64356;45.638;13.764;2024-01-15T06:30:47;21.90;38.90
75738;DHT22;64356;45.638;13.764;2024-01-15T06:33:12;21.90;39.00
75738;DHT22;64356;45.638;13.764;2024-01-15T06:35:38;21.90;38.90
75738;DHT22;64356;45.638;13.764;2024-01-15T06:38:04;21.90;39.10
75738;DHT22;64356;45.638;13.764;2024-01-15T06:40:29;21.90;39.00
75738;DHT22;64356;45.638;13.764;2024-01-15T06:42:55;22.00;39.00
75738;DHT22;64356;45.638;13.764;2024-01-15T06:45:21;22.10;39.50
75738;DHT22;64356;45.638;13.764;2024-01-15T06:47:46;22.30;38.70
75738;DHT22;64356;45.638;13.764;2024-01-15T06:50:13;22.40;38.80
75738;DHT22;64356;45.638;13.764;2024-01-15T06:52:38;22.50;38.70
75738;DHT22;64356;45.638;13.764;2024-01-15T06:55:04;22.50;38.30
75738;DHT22;64356;45.638;13.764;2024-01-15T06:57:31;22.50;38.50
75738;DHT22;64356;45.638;13.764;2024-01-15T06:59:56;22.30;38.70
75738;DHT22;64356;45.638;13.764;2024-01-15T07:02:22;21.90;39.30
75738;DHT22;64356;45.638;13.764;2024-01-15T07:04:48;21.70;40.20
75738;DHT22;64356;45.638;13.764;2024-01-15T07:07:13;21.80;40.30
75738;DHT22;64356;45.638;13.764;2024-01-15T07:09:39;22.00;40.10
75738;DHT22;64356;45.638;13.764;2024-01-15T07:12:04;22.10;39.70
75738;DHT22;64356;45.638;13.764;2024-01-15T07:14:30;22.30;39.50
75738;DHT22;64356;45.638;13.764;2024-01-15T07:16:56;22.40;39.30
75738;DHT22;64356;45.638;13.764;2024-01-15T07:19:21;22.50;39.20
75738;DHT22;64356;45.638;13.764;2024-01-15T07:21:47;22.60;39.30
75738;DHT22;64356;45.638;13.764;2024-01-15T07:24:13;22.60;39.50
75738;DHT22;64356;45.638;13.764;2024-01-15T07:26:38;22.70;39.60
75738;DHT22;64356;45.638;13.764;2024-01-15T07:29:04;22.70;39.70
75738;DHT22;64356;45.638;13.764;2024-01-15T07:31:30;22.60;39.90
75738;DHT22;64356;45.638;13.764;2024-01-15T07:33:56;22.60;40.40
75738;DHT22;64356;45.638;13.764;2024-01-15T07:36:21;22.50;40.40
75738;DHT22;64356;45.638;13.764;2024-01-15T07:38:47;22.50;40.60
75738;DHT22;64356;45.638;13.764;2024-01-15T07:41:13;22.40;40.70
75738;DHT22;64356;45.638;13.764;2024-01-15T07:43:38;22.30;40.70
75738;DHT22;64356;45.638;13.764;2024-01-15T07:46:04;22.20;40.80
75738;DHT22;64356;45.638;13.764;2024-01-15T07:48:30;22.20;41.00
75738;DHT22;64356;45.638;13.764;2024-01-15T07:50:55;22.10;41.10
75738;DHT22;64356;45.638;13.764;2024-01-15T07:53:21;22.10;41.20
75738;DHT22;64356;45.638;13.764;2024-01-15T07:55:46;22.10;41.30
75738;DHT22;64356;45.638;13.764;2024-01-15T07:58:12;22.10;41.60
75738;DHT22;64356;45.638;13.764;2024-01-15T08:00:38;22.10;41.50
75738;DHT22;64356;45.638;13.764;2024-01-15T08:03:03;22.10;41.70
75738;DHT22;64356;45.638;13.764;2024-01-15T08:05:29;22.20;41.50
75738;DHT22;64356;45.638;13.764;2024-01-15T08:07:55;22.10;41.60
75738;DHT22;64356;45.638;13.764;2024-01-15T08:10:20;22.10;41.40
75738;DHT22;64356;45.638;13.764;2024-01-15T08:12:46;22.00;41.30
75738;DHT22;64356;45.638;13.764;2024-01-15T08:15:12;22.00;41.00
75738;DHT22;64356;45.638;13.764;2024-01-15T08:17:38;22.00;41.00
75738;DHT22;64356;45.638;13.764;2024-01-15T08:20:05;22.00;40.70
75738;DHT22;64356;45.638;13.764;2024-01-15T08:22:31;22.00;40.50
75738;DHT22;64356;45.638;13.764;2024-01-15T08:24:56;21.90;40.50
75738;DHT22;64356;45.638;13.764;2024-01-15T08:27:22;21.90;40.20
75738;DHT22;64356;45.638;13.764;2024-01-15T08:29:49;21.90;40.20
75738;DHT22;64356;45.638;13.764;2024-01-15T08:32:14;21.90;40.20
75738;DHT22;64356;45.638;13.764;2024-01-15T08:34:41;21.90;40.10
75738;DHT22;64356;45.638;13.764;2024-01-15T08:37:07;21.90;39.80
75738;DHT22;64356;45.638;13.764;2024-01-15T08:39:32;22.00;39.60
75738;DHT22;64356;45.638;13.764;2024-01-15T08:41:58;22.00;39.50
75738;DHT22;64356;45.638;13.764;2024-01-15T08:44:24;22.10;39.50
75738;DHT22;64356;45.638;13.764;2024-01-15T08:46:49;22.20;39.60
75738;DHT22;64356;45.638;13.764;2024-01-15T08:49:16;22.20;39.80
75738;DHT22;64356;45.638;13.764;2024-01-15T08:51:42;22.30;40.00
75738;DHT22;64356;45.638;13.764;2024-01-15T08:54:07;22.30;40.30
75738;DHT22;64356;45.638;13.764;2024-01-15T08:56:34;22.30;40.30
75738;DHT22;64356;45.638;13.764;2024-01-15T08:58:59;22.30;40.80
75738;DHT22;64356;45.638;13.764;2024-01-15T09:01:26;22.30;40.90
75738;DHT22;64356;45.638;13.764;2024-01-15T09:03:53;22.40;41.90
75738;DHT22;64356;45.638;13.764;2024-01-15T09:06:18;22.50;42.70
75738;DHT22;64356;45.638;13.764;2024-01-15T09:08:44;22.60;43.30
75738;DHT22;64356;45.638;13.764;2024-01-15T09:11:10;22.60;43.60
75738;DHT22;64356;45.638;13.764;2024-01-15T09:13:35;22.60;43.90
75738;DHT22;64356;45.638;13.764;2024-01-15T09:16:01;22.60;44.10
75738;DHT22;64356;45.638;13.764;2024-01-15T09:18:27;22.60;44.00
75738;DHT22;64356;45.638;13.764;2024-01-15T09:20:55;22.50;44.20
75738;DHT22;64356;45.638;13.764;2024-01-15T09:23:21;22.40;44.80
75738;DHT22;64356;45.638;13.764;2024-01-15T09:25:47;22.30;44.40
75738;DHT22;64356;45.638;13.764;2024-01-15T09:28:14;22.30;44.70
75738;DHT22;64356;45.638;13.764;2024-01-15T09:30:39;22.20;44.70
75738;DHT22;64356;45.638;13.764;2024-01-15T09:33:06;22.20;44.70
75738;DHT22;64356;45.638;13.764;2024-01-15T09:35:31;22.20;44.80
75738;DHT22;64356;45.638;13.764;2024-01-15T09:37:58;22.20;44.60
75738;DHT22;64356;45.638;13.764;2024-01-15T09:40:24;22.10;44.70
75738;DHT22;64356;45.638;13.764;2024-01-15T09:42:50;22.20;44.60
75738;DHT22;64356;45.638;13.764;2024-01-15T09:45:17;22.20;44.50
75738;DHT22;64356;45.638;13.764;2024-01-15T09:47:43;22.20;44.60
75738;DHT22;64356;45.638;13.764;2024-01-15T09:50:10;22.20;44.50
75738;DHT22;64356;45.638;13.764;2024-01-15T09:52:35;22.20;44.70
75738;DHT22;64356;45.638;13.764;2024-01-15T09:55:02;22.20;44.90
75738;DHT22;64356;45.638;13.764;2024-01-15T09:57:29;22.20;44.60
75738;DHT22;64356;45.638;13.764;2024-01-15T09:59:55;22.20;45.10
75738;DHT22;64356;45.638;13.764;2024-01-15T10:02:24;22.20;45.60
75738;DHT22;64356;45.638;13.764;2024-01-15T10:04:50;22.20;45.30
75738;DHT22;64356;45.638;13.764;2024-01-15T10:07:16;22.30;45.40
75738;DHT22;64356;45.638;13.764;2024-01-15T10:09:45;22.30;45.10
75738;DHT22;64356;45.638;13.764;2024-01-15T10:12:11;22.20;45.20
75738;DHT22;64356;45.638;13.764;2024-01-15T10:14:37;22.20;45.20
75738;DHT22;64356;45.638;13.764;2024-01-15T10:17:11;22.20;45.20
75738;DHT22;64356;45.638;13.764;2024-01-15T10:19:37;22.20;45.20
75738;DHT22;64356;45.638;13.764;2024-01-15T10:22:03;22.20;45.40
75738;DHT22;64356;45.638;13.764;2024-01-15T10:24:28;22.20;45.20
75738;DHT22;64356;45.638;13.764;2024-01-15T10:27:04;22.20;45.20
75738;DHT22;64356;45.638;13.764;2024-01-15T10:29:30;22.20;45.20
75738;DHT22;64356;45.638;13.764;2024-01-15T10:31:56;22.30;44.90
75738;DHT22;64356;45.638;13.764;2024-01-15T10:34:21;22.30;45.00
75738;DHT22;64356;45.638;13.764;2024-01-15T10:36:47;22.30;44.90
75738;DHT22;64356;45.638;13.764;2024-01-15T10:39:21;22.20;44.90
75738;DHT22;64356;45.638;13.764;2024-01-15T10:41:46;22.20;44.90
75738;DHT22;64356;45.638;13.764;2024-01-15T10:44:12;22.20;44.90
75738;DHT22;64356;45.638;13.764;2024-01-15T10:46:37;22.20;44.80
75738;DHT22;64356;45.638;13.764;2024-01-15T10:49:04;22.20;44.90
75738;DHT22;64356;45.638;13.764;2024-01-15T10:51:30;22.30;45.00
75738;DHT22;64356;45.638;13.764;2024-01-15T10:53:56;22.30;45.10
75738;DHT22;64356;45.638;13.764;2024-01-15T10:56:22;22.20;45.70
75738;DHT22;64356;45.638;13.764;2024-01-15T10:58:49;22.20;45.60
75738;DHT22;64356;45.638;13.764;2024-01-15T11:01:16;22.20;46.10
75738;DHT22;64356;45.638;13.764;2024-01-15T11:03:42;22.30;46.40
75738;DHT22;64356;45.638;13.764;2024-01-15T11:06:18;22.30;46.70
75738;DHT22;64356;45.638;13.764;2024-01-15T11:08:52;22.30;47.00
75738;DHT22;64356;45.638;13.764;2024-01-15T11:11:17;22.30;46.50
75738;DHT22;64356;45.638;13.764;2024-01-15T11:13:45;22.30;46.00
75738;DHT22;64356;45.638;13.764;2024-01-15T11:16:12;22.30;45.40
75738;DHT22;64356;45.638;13.764;2024-01-15T11:23:52;22.40;43.60
75738;DHT22;64356;45.638;13.764;2024-01-15T11:29:10;22.60;42.00
75738;DHT22;64356;45.638;13.764;2024-01-15T11:34:09;22.80;40.80
75738;DHT22;64356;45.638;13.764;2024-01-15T11:37:01;22.80;40.30
75738;DHT22;64356;45.638;13.764;2024-01-15T11:42:03;22.90;39.90
75738;DHT22;64356;45.638;13.764;2024-01-15T11:44:29;23.00;39.60
75738;DHT22;64356;45.638;13.764;2024-01-15T11:46:59;23.00;39.50
75738;DHT22;64356;45.638;13.764;2024-01-15T11:51:57;23.20;39.20
75738;DHT22;64356;45.638;13.764;2024-01-15T11:54:25;23.20;39.00
75738;DHT22;64356;45.638;13.764;2024-01-15T11:56:52;23.30;39.10
75738;DHT22;64356;45.638;13.764;2024-01-15T11:59:18;23.30;40.50
75738;DHT22;64356;45.638;13.764;2024-01-15T12:01:44;23.30;40.20
75738;DHT22;64356;45.638;13.764;2024-01-15T12:04:09;23.40;40.20
75738;DHT22;64356;45.638;13.764;2024-01-15T12:06:35;23.50;40.60
75738;DHT22;64356;45.638;13.764;2024-01-15T12:09:07;23.60;40.60
75738;DHT22;64356;45.638;13.764;2024-01-15T12:11:33;23.60;40.90
75738;DHT22;64356;45.638;13.764;2024-01-15T12:14:00;23.50;40.80
75738;DHT22;64356;45.638;13.764;2024-01-15T12:16:25;23.50;40.90
75738;DHT22;64356;45.638;13.764;2024-01-15T12:18:51;23.50;40.90
75738;DHT22;64356;45.638;13.764;2024-01-15T12:21:18;23.40;41.00
75738;DHT22;64356;45.638;13.764;2024-01-15T12:23:45;23.30;41.10
75738;DHT22;64356;45.638;13.764;2024-01-15T12:26:11;23.20;41.30
75738;DHT22;64356;45.638;13.764;2024-01-15T12:28:37;23.10;41.80
75738;DHT22;64356;45.638;13.764;2024-01-15T12:31:02;23.10;42.20
75738;DHT22;64356;45.638;13.764;2024-01-15T12:33:30;23.00;42.50
75738;DHT22;64356;45.638;13.764;2024-01-15T12:35:56;22.90;42.20
75738;DHT22;64356;45.638;13.764;2024-01-15T12:38:22;22.90;42.20
75738;DHT22;64356;45.638;13.764;2024-01-15T12:40:48;22.70;42.30
75738;DHT22;64356;45.638;13.764;2024-01-15T12:43:13;22.70;42.70
75738;DHT22;64356;45.638;13.764;2024-01-15T12:45:40;22.60;42.70
75738;DHT22;64356;45.638;13.764;2024-01-15T12:48:05;22.50;42.70
75738;DHT22;64356;45.638;13.764;2024-01-15T12:50:33;22.40;43.20
75738;DHT22;64356;45.638;13.764;2024-01-15T12:52:58;22.30;41.40
75738;DHT22;64356;45.638;13.764;2024-01-15T12:55:25;21.90;37.90
75738;DHT22;64356;45.638;13.764;2024-01-15T12:57:51;21.50;41.60
75738;DHT22;64356;45.638;13.764;2024-01-15T13:00:20;21.40;42.70
75738;DHT22;64356;45.638;13.764;2024-01-15T13:02:45;21.40;44.30
75738;DHT22;64356;45.638;13.764;2024-01-15T13:05:11;21.40;45.10
75738;DHT22;64356;45.638;13.764;2024-01-15T13:07:37;21.50;45.50
75738;DHT22;64356;45.638;13.764;2024-01-15T13:10:03;21.50;45.40
75738;DHT22;64356;45.638;13.764;2024-01-15T13:12:29;21.60;45.20
75738;DHT22;64356;45.638;13.764;2024-01-15T13:14:55;21.70;45.20
75738;DHT22;64356;45.638;13.764;2024-01-15T13:17:21;21.80;44.70
75738;DHT22;64356;45.638;13.764;2024-01-15T13:19:47;21.70;44.40
75738;DHT22;64356;45.638;13.764;2024-01-15T13:22:13;21.80;43.80
75738;DHT22;64356;45.638;13.764;2024-01-15T13:24:39;21.80;43.50
75738;DHT22;64356;45.638;13.764;2024-01-15T13:27:05;21.80;41.40
75738;DHT22;64356;45.638;13.764;2024-01-15T13:29:32;21.80;41.00
75738;DHT22;64356;45.638;13.764;2024-01-15T13:31:58;21.80;40.70
75738;DHT22;64356;45.638;13.764;2024-01-15T13:34:23;21.90;40.30
75738;DHT22;64356;45.638;13.764;2024-01-15T13:36:49;21.90;40.10
75738;DHT22;64356;45.638;13.764;2024-01-15T13:39:18;21.90;39.60
75738;DHT22;64356;45.638;13.764;2024-01-15T13:41:48;22.00;39.90
75738;DHT22;64356;45.638;13.764;2024-01-15T13:44:14;22.00;39.60
75738;DHT22;64356;45.638;13.764;2024-01-15T13:46:40;22.00;39.40
75738;DHT22;64356;45.638;13.764;2024-01-15T13:49:05;22.00;39.60
75738;DHT22;64356;45.638;13.764;2024-01-15T13:51:37;22.00;39.30
75738;DHT22;64356;45.638;13.764;2024-01-15T13:54:02;22.00;39.20
75738;DHT22;64356;45.638;13.764;2024-01-15T13:56:30;22.00;39.20
75738;DHT22;64356;45.638;13.764;2024-01-15T13:58:58;22.00;39.30
75738;DHT22;64356;45.638;13.764;2024-01-15T14:01:23;22.00;39.20
75738;DHT22;64356;45.638;13.764;2024-01-15T14:03:49;22.00;39.50
75738;DHT22;64356;45.638;13.764;2024-01-15T14:06:15;21.90;39.50
75738;DHT22;64356;45.638;13.764;2024-01-15T14:08:40;21.90;39.60
75738;DHT22;64356;45.638;13.764;2024-01-15T14:11:06;21.90;39.50
75738;DHT22;64356;45.638;13.764;2024-01-15T14:13:33;21.90;39.60
75738;DHT22;64356;45.638;13.764;2024-01-15T14:15:59;21.90;39.70
75738;DHT22;64356;45.638;13.764;2024-01-15T14:18:26;21.90;39.40
75738;DHT22;64356;45.638;13.764;2024-01-15T14:20:51;21.80;39.40
75738;DHT22;64356;45.638;13.764;2024-01-15T14:23:19;21.70;39.10
75738;DHT22;64356;45.638;13.764;2024-01-15T14:25:45;21.70;39.20
75738;DHT22;64356;45.638;13.764;2024-01-15T14:28:10;21.70;39.50
75738;DHT22;64356;45.638;13.764;2024-01-15T14:30:36;21.80;39.40
75738;DHT22;64356;45.638;13.764;2024-01-15T14:33:02;21.80;39.20
75738;DHT22;64356;45.638;13.764;2024-01-15T14:35:28;21.80;39.20
75738;DHT22;64356;45.638;13.764;2024-01-15T14:37:54;21.80;39.80
75738;DHT22;64356;45.638;13.764;2024-01-15T14:40:19;21.80;40.00
75738;DHT22;64356;45.638;13.764;2024-01-15T14:42:45;21.80;40.00
75738;DHT22;64356;45.638;13.764;2024-01-15T14:45:11;21.80;40.20
75738;DHT22;64356;45.638;13.764;2024-01-15T14:47:39;21.80;39.80
75738;DHT22;64356;45.638;13.764;2024-01-15T14:50:06;21.70;39.90
75738;DHT22;64356;45.638;13.764;2024-01-15T14:52:32;21.70;40.10
75738;DHT22;64356;45.638;13.764;2024-01-15T14:54:59;21.70;40.10
75738;DHT22;64356;45.638;13.764;2024-01-15T14:57:24;21.80;40.20
75738;DHT22;64356;45.638;13.764;2024-01-15T14:59:50;21.70;40.10
75738;DHT22;64356;45.638;13.764;2024-01-15T15:02:15;21.70;40.60
75738;DHT22;64356;45.638;13.764;2024-01-15T15:04:41;21.70;41.10
75738;DHT22;64356;45.638;13.764;2024-01-15T15:07:07;21.70;41.40
75738;DHT22;64356;45.638;13.764;2024-01-15T15:09:33;21.80;41.70
75738;DHT22;64356;45.638;13.764;2024-01-15T15:11:59;21.80;41.80
75738;DHT22;64356;45.638;13.764;2024-01-15T15:14:25;21.90;41.90
75738;DHT22;64356;45.638;13.764;2024-01-15T15:16:51;21.90;41.80
75738;DHT22;64356;45.638;13.764;2024-01-15T15:19:17;21.90;41.90
75738;DHT22;64356;45.638;13.764;2024-01-15T15:21:44;22.00;42.00
75738;DHT22;64356;45.638;13.764;2024-01-15T15:24:10;22.00;42.00
75738;DHT22;64356;45.638;13.764;2024-01-15T15:26:35;22.00;41.80